General Aviation Weather

Text Reports

Enter one or more of the following location identifiers separated by a space:

Zip Code, Four-Character ICAO or Three-Character IATA airport codes.

METAR - Aviation Routine Weather Report
KLPR - Lorain / Elyria, Ohio
Updated at 12:53 PM GMT on August 04, 2015 (8:53 AM EDT):
METAR KLPR 041253Z AUTO 24006KT 10SM CLR 19/13 A2997 RMK AO2 SLP145 T01890128 TSNO
TAF - Terminal Area Forecast
KLPR - Lorain / Elyria, Ohio
Updated at 12:53 PM GMT on August 04, 2015 (8:53 AM EDT):
No TAF is currently available for this location.
Decoded:
No decoded TAF is available.
PIREP - Pilot Weather Report
KLPR - Lorain / Elyria, Ohio
Updated at 12:53 PM GMT on August 04, 2015 (8:53 AM EDT):
No PIREP is currently available for this location.
AIRMET - Airmens Meteorological Information
KLPR - Lorain / Elyria, Ohio
Updated at 12:53 PM GMT on August 04, 2015 (8:53 AM EDT):
No AIRMET is currently available for this location.
SIGMET - Significant Meteorological Information
KLPR - Lorain / Elyria, Ohio
Updated at 12:53 PM GMT on August 04, 2015 (8:53 AM EDT):
No SIGMET is currently available for this location.
NOTAM - Notice to Airmen
KLPR - Lorain / Elyria, Ohio
Updated at 12:53 PM GMT on August 04, 2015 (8:53 AM EDT):
No NOTAM is currently available for this location.
Forecast Area
KLPR - Lorain / Elyria, Ohio
Updated at 12:53 PM GMT on August 04, 2015 (8:53 AM EDT):
No NOTAM is currently available for this location.
Aviation Weather Maps